Time;durP1;ratioP1;P1;durP2;ratioP2;P2;SDS_P1;SDS_P2;PMS_P1;PMS_P2;Temp;Humidity;BMP_temperature;BMP_pressure;BME280_temperature;BME280_humidity;BME280_pressure;Samples;Min_cycle;Max_cycle;Signal;HPM_P1;HPM_P2
2023/07/18 00:00:51;;;;;;;;;;;21.20;92.00;;;;;;7570233;19;20995;-74
2023/07/18 00:03:23;;;;;;;;;;;21.20;93.10;;;;;;7566530;19;20898;-75
2023/07/18 00:05:55;;;;;;;;;;;21.20;93.40;;;;;;7561633;19;21083;-74
2023/07/18 00:08:28;;;;;;;;;;;21.20;93.00;;;;;;7566346;19;20478;-76
2023/07/18 00:11:00;;;;;;;;;;;21.20;94.00;;;;;;7593775;19;19919;-75
2023/07/18 00:13:33;;;;;;;;;;;21.20;94.50;;;;;;7561200;19;20792;-75
2023/07/18 00:16:05;;;;;;;;;;;21.20;94.90;;;;;;7572098;19;20375;-74
2023/07/18 00:18:37;;;;;;;;;;;21.10;94.80;;;;;;7565946;19;19922;-75
2023/07/18 00:21:12;;;;;;;;;;;21.10;94.70;;;;;;7581239;19;21034;-75
2023/07/18 00:23:44;;;;;;;;;;;21.00;94.50;;;;;;7564118;19;19923;-75
2023/07/18 00:26:16;;;;;;;;;;;21.00;95.40;;;;;;7576295;19;19918;-75
2023/07/18 00:28:53;;;;;;;;;;;20.90;95.00;;;;;;7568390;19;20597;-74
2023/07/18 00:31:26;;;;;;;;;;;20.80;95.60;;;;;;7581525;19;19930;-74
2023/07/18 00:33:59;;;;;;;;;;;20.80;95.50;;;;;;7568906;19;20664;-75
2023/07/18 00:36:31;;;;;;;;;;;20.80;95.90;;;;;;7564107;19;19919;-74
2023/07/18 00:39:04;;;;;;;;;;;20.90;96.20;;;;;;7573783;19;19915;-75
2023/07/18 00:41:36;;;;;;;;;;;20.80;95.90;;;;;;7566106;19;19957;-75
2023/07/18 00:44:09;;;;;;;;;;;20.80;96.10;;;;;;7555646;19;20325;-75
2023/07/18 00:46:41;;;;;;;;;;;20.80;96.60;;;;;;7566742;19;22161;-75
2023/07/18 00:49:13;;;;;;;;;;;20.80;97.00;;;;;;7563117;19;19919;-74
2023/07/18 00:51:46;;;;;;;;;;;20.70;97.20;;;;;;7573187;19;19965;-75
2023/07/18 00:54:20;;;;;;;;;;;20.70;97.00;;;;;;7557744;19;19934;-76
2023/07/18 00:56:53;;;;;;;;;;;20.70;97.10;;;;;;7571954;19;19915;-75
2023/07/18 00:59:27;;;;;;;;;;;20.60;96.80;;;;;;7567985;19;20793;-75
2023/07/18 01:02:02;;;;;;;;;;;20.70;97.40;;;;;;7590263;19;19930;-75
2023/07/18 01:04:36;;;;;;;;;;;20.60;97.30;;;;;;7595530;19;19922;-75
2023/07/18 01:07:10;;;;;;;;;;;20.60;97.30;;;;;;7592465;19;19918;-74
2023/07/18 01:09:43;;;;;;;;;;;20.60;97.20;;;;;;7596792;19;19915;-75
2023/07/18 01:12:15;;;;;;;;;;;20.50;97.40;;;;;;7592231;19;19922;-74
2023/07/18 01:14:49;;;;;;;;;;;20.50;98.10;;;;;;7589882;19;19922;-76
2023/07/18 01:17:22;;;;;;;;;;;20.40;98.40;;;;;;7590500;19;19954;-75
2023/07/18 01:19:54;;;;;;;;;;;20.30;98.60;;;;;;7591678;19;19926;-75
2023/07/18 01:22:26;;;;;;;;;;;20.30;99.10;;;;;;7597025;19;19934;-75
2023/07/18 01:24:58;;;;;;;;;;;20.20;98.60;;;;;;7598291;19;19988;-76
2023/07/18 01:27:31;;;;;;;;;;;20.10;98.40;;;;;;7597089;19;19970;-75
2023/07/18 01:30:05;;;;;;;;;;;20.00;98.60;;;;;;7586680;19;19949;-74
2023/07/18 01:32:41;;;;;;;;;;;19.90;99.40;;;;;;7585827;19;19960;-75
2023/07/18 01:35:15;;;;;;;;;;;19.90;99.40;;;;;;7592203;19;19949;-75
2023/07/18 01:37:48;;;;;;;;;;;19.90;99.90;;;;;;7593445;19;20277;-75
2023/07/18 01:40:21;;;;;;;;;;;19.80;99.90;;;;;;7591200;19;20512;-75
2023/07/18 01:42:54;;;;;;;;;;;19.80;99.90;;;;;;7590828;19;20586;-75
2023/07/18 01:45:29;;;;;;;;;;;19.70;99.90;;;;;;7583609;19;19937;-75
2023/07/18 01:48:04;;;;;;;;;;;19.60;99.90;;;;;;7587713;19;19923;-74
2023/07/18 01:50:36;;;;;;;;;;;19.50;99.90;;;;;;7596496;19;19918;-75
2023/07/18 01:53:11;;;;;;;;;;;19.40;99.90;;;;;;7584127;19;20019;-75
2023/07/18 01:55:43;;;;;;;;;;;19.30;99.90;;;;;;7590017;19;20008;-75
2023/07/18 01:58:15;;;;;;;;;;;19.30;99.90;;;;;;7594261;19;20917;-75
2023/07/18 02:00:47;;;;;;;;;;;19.30;99.90;;;;;;7585251;19;19931;-74
2023/07/18 02:03:20;;;;;;;;;;;19.30;99.90;;;;;;7588573;19;20455;-75
2023/07/18 02:05:55;;;;;;;;;;;19.30;99.90;;;;;;7597213;19;19927;-75
2023/07/18 02:08:29;;;;;;;;;;;19.30;99.90;;;;;;7591545;19;19922;-75
2023/07/18 02:11:04;;;;;;;;;;;19.20;99.90;;;;;;7587201;19;20906;-75
2023/07/18 02:13:36;;;;;;;;;;;19.10;99.90;;;;;;7588341;19;19919;-75
2023/07/18 02:16:12;;;;;;;;;;;19.10;99.90;;;;;;7601972;19;20793;-75
2023/07/18 02:18:46;;;;;;;;;;;19.00;99.90;;;;;;7598298;19;20678;-75
2023/07/18 02:21:18;;;;;;;;;;;19.00;99.90;;;;;;7598551;19;19927;-75
2023/07/18 02:23:51;;;;;;;;;;;19.00;99.90;;;;;;7600116;19;19914;-75
2023/07/18 02:26:23;;;;;;;;;;;18.90;99.90;;;;;;7601707;19;20884;-75
2023/07/18 02:28:56;;;;;;;;;;;18.90;99.90;;;;;;7591171;19;19930;-75
2023/07/18 02:31:29;;;;;;;;;;;18.90;99.90;;;;;;7597008;19;19932;-75
2023/07/18 02:34:04;;;;;;;;;;;18.90;99.90;;;;;;7598322;19;19922;-75
2023/07/18 02:36:36;;;;;;;;;;;18.90;99.90;;;;;;7600058;19;20246;-75
2023/07/18 02:39:10;;;;;;;;;;;18.90;99.90;;;;;;7596259;19;19919;-75
2023/07/18 02:41:42;;;;;;;;;;;18.90;99.90;;;;;;7593442;19;20295;-75
2023/07/18 02:44:15;;;;;;;;;;;18.90;99.90;;;;;;7582927;19;19922;-74
2023/07/18 02:46:48;;;;;;;;;;;18.90;99.90;;;;;;7594542;19;20634;-75
2023/07/18 02:49:20;;;;;;;;;;;18.90;99.90;;;;;;7574868;19;19918;-74
2023/07/18 02:51:52;;;;;;;;;;;18.90;99.90;;;;;;7591609;19;20672;-75
2023/07/18 02:54:24;;;;;;;;;;;18.80;99.90;;;;;;7587736;19;19914;-75
2023/07/18 02:56:56;;;;;;;;;;;18.70;99.90;;;;;;7586968;19;19934;-75
2023/07/18 02:59:28;;;;;;;;;;;18.70;99.90;;;;;;7572475;19;20224;-75
2023/07/18 03:02:01;;;;;;;;;;;18.70;99.90;;;;;;7585323;19;19923;-74
2023/07/18 03:04:33;;;;;;;;;;;18.60;99.90;;;;;;7578770;19;19925;-75
2023/07/18 03:07:05;;;;;;;;;;;18.60;99.90;;;;;;7583639;19;19931;-75
2023/07/18 03:09:38;;;;;;;;;;;18.60;99.90;;;;;;7575225;19;19922;-75
2023/07/18 03:12:10;;;;;;;;;;;18.50;99.90;;;;;;7582664;19;19914;-75
2023/07/18 03:14:44;;;;;;;;;;;18.60;99.90;;;;;;7584706;19;19918;-75
2023/07/18 03:17:16;;;;;;;;;;;18.60;99.90;;;;;;7575004;19;19911;-74
2023/07/18 03:19:48;;;;;;;;;;;18.50;99.90;;;;;;7584561;19;19919;-75
2023/07/18 03:22:20;;;;;;;;;;;18.40;99.90;;;;;;7580261;19;19923;-74
2023/07/18 03:24:54;;;;;;;;;;;18.30;99.90;;;;;;7585155;19;20338;-75
2023/07/18 03:27:26;;;;;;;;;;;18.20;99.90;;;;;;7577042;19;20372;-75
2023/07/18 03:29:59;;;;;;;;;;;18.20;99.90;;;;;;7578373;19;20436;-75
2023/07/18 03:32:33;;;;;;;;;;;18.20;99.90;;;;;;7564408;19;19933;-75
2023/07/18 03:35:06;;;;;;;;;;;18.20;99.90;;;;;;7580942;19;19957;-75
2023/07/18 03:37:38;;;;;;;;;;;18.10;99.90;;;;;;7575650;19;20846;-75
2023/07/18 03:40:15;;;;;;;;;;;18.00;99.90;;;;;;7523899;19;21802;-75
2023/07/18 03:42:48;;;;;;;;;;;18.00;99.90;;;;;;7549997;19;19951;-74
2023/07/18 03:45:21;;;;;;;;;;;18.00;99.90;;;;;;7547553;19;21005;-74
2023/07/18 03:47:53;;;;;;;;;;;17.90;99.90;;;;;;7540703;19;19914;-74
2023/07/18 03:50:25;;;;;;;;;;;18.00;99.90;;;;;;7546888;19;19934;-74
2023/07/18 03:52:58;;;;;;;;;;;18.00;99.90;;;;;;7523084;19;20402;-75
2023/07/18 03:55:30;;;;;;;;;;;18.00;99.90;;;;;;7545258;19;20933;-75
2023/07/18 03:58:02;;;;;;;;;;;18.00;99.90;;;;;;7590724;19;19968;-74
2023/07/18 04:00:35;;;;;;;;;;;17.90;99.90;;;;;;7578888;19;20868;-75
2023/07/18 04:03:07;;;;;;;;;;;17.80;99.90;;;;;;7581785;19;20582;-76
2023/07/18 04:05:39;;;;;;;;;;;17.90;99.90;;;;;;7572075;19;19922;-75
2023/07/18 04:08:12;;;;;;;;;;;17.80;99.90;;;;;;7578408;19;19926;-75
2023/07/18 04:10:44;;;;;;;;;;;17.80;99.90;;;;;;7575337;19;19923;-74
2023/07/18 04:13:17;;;;;;;;;;;17.80;99.90;;;;;;7554516;19;19922;-75
2023/07/18 04:15:49;;;;;;;;;;;17.80;99.90;;;;;;7556111;19;19930;-75
2023/07/18 04:18:22;;;;;;;;;;;17.80;99.90;;;;;;7544086;19;19965;-74
2023/07/18 04:21:01;;;;;;;;;;;17.80;99.90;;;;;;7564032;19;19922;-75
2023/07/18 04:23:33;;;;;;;;;;;17.70;99.90;;;;;;7581063;19;19923;-75
2023/07/18 04:26:08;;;;;;;;;;;17.70;99.90;;;;;;7586013;19;20549;-75
2023/07/18 04:28:41;;;;;;;;;;;17.80;99.90;;;;;;7545732;19;20345;-74
2023/07/18 04:31:13;;;;;;;;;;;17.80;99.90;;;;;;7542203;19;19955;-75
2023/07/18 04:33:49;;;;;;;;;;;17.90;99.90;;;;;;7552286;19;19940;-74
2023/07/18 04:36:22;;;;;;;;;;;17.90;99.90;;;;;;7512285;19;20339;-75
2023/07/18 04:38:54;;;;;;;;;;;17.90;99.90;;;;;;7561028;19;19919;-74
2023/07/18 04:41:27;;;;;;;;;;;18.00;99.90;;;;;;7552162;19;19930;-75
2023/07/18 04:44:12;;;;;;;;;;;17.90;99.90;;;;;;7531638;19;19976;-74
2023/07/18 04:46:44;;;;;;;;;;;17.90;99.90;;;;;;7542964;19;19917;-74
2023/07/18 04:49:18;;;;;;;;;;;17.90;99.90;;;;;;7532079;19;19925;-75
2023/07/18 04:51:51;;;;;;;;;;;18.00;99.90;;;;;;7543785;19;21650;-74
2023/07/18 04:54:23;;;;;;;;;;;18.10;99.90;;;;;;7500815;19;19974;-74
2023/07/18 04:56:55;;;;;;;;;;;18.10;99.90;;;;;;7535943;19;19923;-73
2023/07/18 04:59:27;;;;;;;;;;;18.10;99.90;;;;;;7551767;19;20346;-76
2023/07/18 05:02:00;;;;;;;;;;;18.20;99.90;;;;;;7508106;19;20365;-75
2023/07/18 05:04:32;;;;;;;;;;;18.30;99.90;;;;;;7531387;19;20441;-74
2023/07/18 05:07:05;;;;;;;;;;;18.40;99.90;;;;;;7563289;19;19937;-75
2023/07/18 05:09:37;;;;;;;;;;;18.40;99.90;;;;;;7561000;19;19927;-75
2023/07/18 05:12:09;;;;;;;;;;;18.40;99.90;;;;;;7554897;19;19926;-74
2023/07/18 05:14:41;;;;;;;;;;;18.50;99.90;;;;;;7534979;19;20412;-75
2023/07/18 05:17:14;;;;;;;;;;;18.60;99.90;;;;;;7545411;19;19923;-75
2023/07/18 05:19:46;;;;;;;;;;;18.80;99.90;;;;;;7522745;19;19922;-74
2023/07/18 05:22:18;;;;;;;;;;;18.90;99.90;;;;;;7519723;19;19922;-74
2023/07/18 05:24:51;;;;;;;;;;;19.00;99.90;;;;;;7539612;19;20608;-74
2023/07/18 05:27:23;;;;;;;;;;;19.10;99.90;;;;;;7483331;19;19922;-74
2023/07/18 05:29:55;;;;;;;;;;;19.20;99.90;;;;;;7503685;19;20031;-74
2023/07/18 05:32:28;;;;;;;;;;;;;;;;;;7540288;19;19926;-74
2023/07/18 05:35:01;;;;;;;;;;;;;;;;;;7583735;19;20852;-75
2023/07/18 05:37:34;;;;;;;;;;;;;;;;;;7587927;19;19923;-75
2023/07/18 05:40:09;;;;;;;;;;;;;;;;;;7587039;19;19919;-75
2023/07/18 05:42:41;;;;;;;;;;;;;;;;;;7562376;19;19926;-74
2023/07/18 05:45:14;;;;;;;;;;;;;;;;;;7581248;19;21684;-75
2023/07/18 05:47:47;;;;;;;;;;;;;;;;;;7551485;19;20018;-73
2023/07/18 05:50:20;;;;;;;;;;;;;;;;;;7558300;19;19931;-73
2023/07/18 05:52:53;;;;;;;;;;;;;;;;;;7570500;19;19929;-75
2023/07/18 05:55:27;;;;;;;;;;;;;;;;;;7540327;19;19927;-74
2023/07/18 05:58:00;;;;;;;;;;;;;;;;;;7575798;19;20457;-74
2023/07/18 06:00:33;;;;;;;;;;;;;;;;;;7553777;19;19925;-73
2023/07/18 06:03:05;;;;;;;;;;;;;;;;;;7566016;19;19923;-74
2023/07/18 06:05:38;;;;;;;;;;;;;;;;;;7542797;19;21029;-73
2023/07/18 06:08:11;;;;;;;;;;;;;;;;;;7562288;19;20237;-74
2023/07/18 06:10:43;;;;;;;;;;;;;;;;;;7572649;19;20105;-74
2023/07/18 06:13:16;;;;;;;;;;;;;;;;;;7519923;19;19923;-73
2023/07/18 06:15:50;;;;;;;;;;;;;;;;;;7533490;19;19934;-73
2023/07/18 06:18:22;;;;;;;;;;;;;;;;;;7540515;19;20340;-73
2023/07/18 06:20:55;;;;;;;;;;;;;;;;;;7535389;19;19959;-74
2023/07/18 06:23:28;;;;;;;;;;;;;;;;;;7560807;19;19927;-74
2023/07/18 06:26:01;;;;;;;;;;;;;;;;;;7550960;19;19927;-73
2023/07/18 06:28:33;;;;;;;;;;;;;;;;;;7553038;19;19915;-74
2023/07/18 06:31:06;;;;;;;;;;;;;;;;;;7569847;19;19926;-76
2023/07/18 06:33:39;;;;;;;;;;;;;;;;;;7591235;19;21003;-76
2023/07/18 06:36:12;;;;;;;;;;;;;;;;;;7584392;19;20419;-76
2023/07/18 06:38:44;;;;;;;;;;;19.40;99.90;;;;;;7594443;19;19926;-76
2023/07/18 06:41:16;;;;;;;;;;;22.30;93.20;;;;;;7586975;19;20262;-76
2023/07/18 06:43:49;;;;;;;;;;;22.40;93.40;;;;;;7590880;19;19929;-76
2023/07/18 06:46:21;;;;;;;;;;;22.40;92.40;;;;;;7587396;19;19926;-76
2023/07/18 06:48:53;;;;;;;;;;;22.50;92.50;;;;;;7588562;19;19938;-76
2023/07/18 06:51:25;;;;;;;;;;;22.60;92.60;;;;;;7590580;19;20630;-76
2023/07/18 06:53:58;;;;;;;;;;;22.70;91.50;;;;;;7593725;19;20018;-76
2023/07/18 06:56:30;;;;;;;;;;;22.80;91.50;;;;;;7583209;19;19947;-76
2023/07/18 06:59:02;;;;;;;;;;;22.80;90.30;;;;;;7589592;19;20391;-74
2023/07/18 07:01:34;;;;;;;;;;;22.80;90.10;;;;;;7585121;19;19930;-74
2023/07/18 07:04:07;;;;;;;;;;;22.90;89.90;;;;;;7588566;19;20809;-74
2023/07/18 07:06:41;;;;;;;;;;;23.10;90.20;;;;;;7595649;19;19943;-75
2023/07/18 07:09:14;;;;;;;;;;;23.20;88.50;;;;;;7585530;19;19915;-75
2023/07/18 07:11:46;;;;;;;;;;;23.20;88.70;;;;;;7569838;19;19911;-74
2023/07/18 07:14:19;;;;;;;;;;;23.40;87.10;;;;;;7560259;19;19922;-74
2023/07/18 07:16:51;;;;;;;;;;;23.50;87.50;;;;;;7540602;19;20051;-74
2023/07/18 07:19:24;;;;;;;;;;;23.40;86.50;;;;;;7576586;19;19922;-75
2023/07/18 07:21:56;;;;;;;;;;;23.40;85.30;;;;;;7527356;19;20046;-73
2023/07/18 07:24:28;;;;;;;;;;;23.60;85.00;;;;;;7521015;19;19915;-75
2023/07/18 07:27:00;;;;;;;;;;;23.60;86.00;;;;;;7550779;19;19923;-73
2023/07/18 07:29:33;;;;;;;;;;;23.70;85.50;;;;;;7580491;19;19933;-74
2023/07/18 07:32:06;;;;;;;;;;;23.80;84.80;;;;;;7586395;19;19923;-74
2023/07/18 07:34:38;;;;;;;;;;;23.90;84.30;;;;;;7567467;19;19914;-75
2023/07/18 07:37:13;;;;;;;;;;;23.90;84.90;;;;;;7590411;19;19933;-73
2023/07/18 07:39:45;;;;;;;;;;;24.00;83.90;;;;;;7585507;19;20254;-75
2023/07/18 07:42:17;;;;;;;;;;;24.10;82.00;;;;;;7589241;19;19930;-73
2023/07/18 07:44:49;;;;;;;;;;;24.20;82.50;;;;;;7587935;19;19922;-73
2023/07/18 07:47:22;;;;;;;;;;;24.30;83.20;;;;;;7589488;19;20357;-74
2023/07/18 07:49:54;;;;;;;;;;;24.30;81.70;;;;;;7586775;19;20359;-75
2023/07/18 07:52:26;;;;;;;;;;;24.40;81.50;;;;;;7586882;19;20273;-73
2023/07/18 07:54:59;;;;;;;;;;;24.50;82.00;;;;;;7582577;19;20301;-75
2023/07/18 07:57:31;;;;;;;;;;;24.60;81.00;;;;;;7589933;19;19953;-75
2023/07/18 08:00:03;;;;;;;;;;;24.60;81.00;;;;;;7584123;19;19929;-74
2023/07/18 08:02:37;;;;;;;;;;;24.70;83.70;;;;;;7585869;19;19919;-75
2023/07/18 08:05:10;;;;;;;;;;;24.90;79.90;;;;;;7590349;19;19926;-74
2023/07/18 08:07:43;;;;;;;;;;;24.90;81.20;;;;;;7596214;19;20732;-75
2023/07/18 08:10:17;;;;;;;;;;;25.10;80.80;;;;;;7597204;19;19919;-75
2023/07/18 08:12:49;;;;;;;;;;;25.00;79.80;;;;;;7589634;19;19922;-75
2023/07/18 08:15:22;;;;;;;;;;;25.00;79.00;;;;;;7576694;19;19918;-74
2023/07/18 08:17:54;;;;;;;;;;;25.00;80.60;;;;;;7579706;19;19926;-74
2023/07/18 08:20:27;;;;;;;;;;;25.10;81.40;;;;;;7585771;19;19971;-75
2023/07/18 08:23:00;;;;;;;;;;;25.30;79.90;;;;;;7594132;19;19922;-74
2023/07/18 08:25:32;;;;;;;;;;;25.30;77.90;;;;;;7584731;19;19922;-74
2023/07/18 08:28:04;;;;;;;;;;;25.20;79.20;;;;;;7572582;19;19919;-74
2023/07/18 08:30:39;;;;;;;;;;;25.20;77.10;;;;;;7563605;19;21150;-74
2023/07/18 08:33:11;;;;;;;;;;;25.30;78.20;;;;;;7568348;19;19952;-74
2023/07/18 08:35:44;;;;;;;;;;;25.30;77.70;;;;;;7599785;19;19957;-74
2023/07/18 08:38:16;;;;;;;;;;;25.40;77.30;;;;;;7599858;19;19951;-74
2023/07/18 08:40:48;;;;;;;;;;;25.50;77.80;;;;;;7597771;19;19923;-74
2023/07/18 08:43:21;;;;;;;;;;;25.40;78.10;;;;;;7601920;19;19938;-74
2023/07/18 08:45:53;;;;;;;;;;;25.50;78.50;;;;;;7599176;19;20022;-74
2023/07/18 08:48:25;;;;;;;;;;;25.60;80.20;;;;;;7591796;19;19952;-73
2023/07/18 08:50:58;;;;;;;;;;;25.70;79.10;;;;;;7587387;19;19926;-74
2023/07/18 08:53:30;;;;;;;;;;;25.80;80.00;;;;;;7589804;19;20803;-73
2023/07/18 08:56:03;;;;;;;;;;;25.80;78.90;;;;;;7578421;19;20209;-74
2023/07/18 08:58:38;;;;;;;;;;;25.80;80.30;;;;;;7552877;19;20395;-74
2023/07/18 09:01:10;;;;;;;;;;;25.80;79.60;;;;;;7584186;19;19926;-74
2023/07/18 09:03:42;;;;;;;;;;;25.90;81.80;;;;;;7587610;19;19926;-74
2023/07/18 09:06:17;;;;;;;;;;;25.90;82.40;;;;;;7598982;19;20931;-75
2023/07/18 09:08:49;;;;;;;;;;;26.00;82.50;;;;;;7599707;19;20010;-75
2023/07/18 09:11:22;;;;;;;;;;;26.10;81.30;;;;;;7597909;19;19926;-75
2023/07/18 09:13:54;;;;;;;;;;;26.20;81.00;;;;;;7595817;19;19915;-74
2023/07/18 09:16:26;;;;;;;;;;;26.20;80.60;;;;;;7589476;19;20249;-75
2023/07/18 09:18:59;;;;;;;;;;;26.10;79.70;;;;;;7592799;19;19927;-74
2023/07/18 09:21:31;;;;;;;;;;;26.00;80.60;;;;;;7602955;19;19968;-75
2023/07/18 09:24:04;;;;;;;;;;;26.00;80.20;;;;;;7597214;19;20416;-75
2023/07/18 09:26:36;;;;;;;;;;;26.00;80.10;;;;;;7602827;19;19922;-74
2023/07/18 09:32:58;;;;;;;;;;;26.10;80.60;;;;;;7550411;19;19927;-74
2023/07/18 09:35:34;;;;;;;;;;;26.10;82.30;;;;;;7584216;19;19986;-76
2023/07/18 09:38:10;;;;;;;;;;;26.20;81.10;;;;;;7584666;19;20334;-75
2023/07/18 09:40:42;;;;;;;;;;;26.10;81.30;;;;;;7558500;19;20636;-74
2023/07/18 09:43:16;;;;;;;;;;;26.20;80.80;;;;;;7575803;19;22135;-75
2023/07/18 09:45:51;;;;;;;;;;;26.20;80.90;;;;;;7572264;19;19923;-75
2023/07/18 09:48:23;;;;;;;;;;;26.30;82.50;;;;;;7582043;19;19949;-74
2023/07/18 09:50:56;;;;;;;;;;;26.40;81.60;;;;;;7555274;19;19919;-75
2023/07/18 09:53:28;;;;;;;;;;;26.40;82.10;;;;;;7583156;19;19922;-74
2023/07/18 09:56:01;;;;;;;;;;;26.40;82.30;;;;;;7581883;19;19955;-75
2023/07/18 09:58:36;;;;;;;;;;;26.50;83.20;;;;;;7557254;19;20288;-75
2023/07/18 10:01:10;;;;;;;;;;;26.60;83.60;;;;;;7546493;19;19927;-74
2023/07/18 10:03:42;;;;;;;;;;;26.60;83.60;;;;;;7599634;19;19914;-75
2023/07/18 10:06:15;;;;;;;;;;;26.70;82.60;;;;;;7592048;19;19952;-75
2023/07/18 10:08:48;;;;;;;;;;;26.70;82.40;;;;;;7574458;19;19919;-74
2023/07/18 10:11:20;;;;;;;;;;;26.70;82.20;;;;;;7556289;19;19956;-74
2023/07/18 10:13:55;;;;;;;;;;;26.90;84.40;;;;;;7587306;19;19926;-75
2023/07/18 10:16:28;;;;;;;;;;;27.00;82.90;;;;;;7569037;19;19937;-74
2023/07/18 10:19:15;;;;;;;;;;;27.10;82.90;;;;;;7579491;19;19929;-74
2023/07/18 10:21:50;;;;;;;;;;;27.20;82.80;;;;;;7569797;19;19930;-74
2023/07/18 10:24:24;;;;;;;;;;;27.40;84.00;;;;;;7576814;19;19932;-74
2023/07/18 10:27:00;;;;;;;;;;;27.50;83.00;;;;;;7581504;19;19918;-75
2023/07/18 10:29:32;;;;;;;;;;;27.80;80.90;;;;;;7550939;19;20365;-74
2023/07/18 10:32:06;;;;;;;;;;;28.50;79.10;;;;;;7553551;19;19926;-75
2023/07/18 10:34:51;;;;;;;;;;;29.00;78.40;;;;;;7537610;19;19926;-75
2023/07/18 10:37:26;;;;;;;;;;;29.40;76.50;;;;;;7560732;19;20652;-75
2023/07/18 10:40:00;;;;;;;;;;;29.80;77.50;;;;;;7531818;19;19915;-75
2023/07/18 10:42:34;;;;;;;;;;;29.90;75.30;;;;;;7576030;19;19927;-75
2023/07/18 10:45:07;;;;;;;;;;;30.20;75.30;;;;;;7565654;19;19919;-75
2023/07/18 10:47:39;;;;;;;;;;;30.20;74.50;;;;;;7598012;19;21040;-75
2023/07/18 10:50:13;;;;;;;;;;;30.40;76.20;;;;;;7574846;19;20002;-76
2023/07/18 10:52:45;;;;;;;;;;;30.60;72.70;;;;;;7553887;19;19914;-75
2023/07/18 10:55:17;;;;;;;;;;;30.80;74.20;;;;;;7565342;19;20464;-76
2023/07/18 10:57:53;;;;;;;;;;;30.80;74.60;;;;;;7564098;19;20353;-75
2023/07/18 11:00:25;;;;;;;;;;;31.00;71.40;;;;;;7559473;19;19964;-75
2023/07/18 11:02:57;;;;;;;;;;;31.00;72.60;;;;;;7559367;19;20045;-75
2023/07/18 11:05:30;;;;;;;;;;;31.30;73.70;;;;;;7576659;19;22823;-75
2023/07/18 11:08:02;;;;;;;;;;;31.50;72.60;;;;;;7582459;19;19923;-74
2023/07/18 11:10:34;;;;;;;;;;;31.60;70.30;;;;;;7567276;19;19927;-75
2023/07/18 11:13:07;;;;;;;;;;;31.30;68.10;;;;;;7576015;19;19926;-74
2023/07/18 11:15:40;;;;;;;;;;;31.50;68.80;;;;;;7600023;19;19930;-75
2023/07/18 11:18:12;;;;;;;;;;;31.60;68.90;;;;;;7591354;19;19957;-75
2023/07/18 11:20:44;;;;;;;;;;;31.60;70.50;;;;;;7585221;19;19923;-75
2023/07/18 11:23:17;;;;;;;;;;;31.80;72.30;;;;;;7563160;19;19923;-76
2023/07/18 11:25:50;;;;;;;;;;;32.10;67.60;;;;;;7565759;19;19922;-75
2023/07/18 11:28:28;;;;;;;;;;;32.40;68.40;;;;;;7577223;19;22670;-75
2023/07/18 11:31:00;;;;;;;;;;;32.30;66.80;;;;;;7583414;19;19930;-75
2023/07/18 11:33:32;;;;;;;;;;;32.30;65.00;;;;;;7595088;19;19930;-75
2023/07/18 11:36:08;;;;;;;;;;;31.40;66.30;;;;;;7605698;19;21163;-74
2023/07/18 11:38:40;;;;;;;;;;;31.00;66.90;;;;;;7599867;19;20480;-76
2023/07/18 11:41:34;;;;;;;;;;;30.80;68.70;;;;;;7600200;19;19930;-75
2023/07/18 11:44:08;;;;;;;;;;;30.50;68.60;;;;;;7601509;19;19919;-75
2023/07/18 11:46:43;;;;;;;;;;;30.30;70.00;;;;;;7603322;19;19922;-75
2023/07/18 11:49:16;;;;;;;;;;;30.30;69.10;;;;;;7600584;19;19960;-74
2023/07/18 11:51:50;;;;;;;;;;;30.60;67.70;;;;;;7601713;19;19914;-74
2023/07/18 11:54:26;;;;;;;;;;;30.80;69.50;;;;;;7610396;19;19922;-75
2023/07/18 11:56:58;;;;;;;;;;;30.80;68.10;;;;;;7609595;19;19965;-75
2023/07/18 11:59:30;;;;;;;;;;;30.60;68.70;;;;;;7597118;19;19956;-75
2023/07/18 12:02:02;;;;;;;;;;;30.10;68.40;;;;;;7604287;19;20002;-75
2023/07/18 12:04:35;;;;;;;;;;;29.80;71.00;;;;;;7602553;19;19950;-76
2023/07/18 12:07:07;;;;;;;;;;;29.90;72.10;;;;;;7614066;19;20281;-75
2023/07/18 12:09:39;;;;;;;;;;;29.90;70.70;;;;;;7610305;19;19926;-75
2023/07/18 12:12:12;;;;;;;;;;;29.80;69.70;;;;;;7611296;19;19934;-75
2023/07/18 12:14:44;;;;;;;;;;;29.80;69.70;;;;;;7608895;19;19918;-75
2023/07/18 12:17:17;;;;;;;;;;;30.20;70.30;;;;;;7606042;19;19923;-75
2023/07/18 12:19:49;;;;;;;;;;;30.60;69.70;;;;;;7602986;19;20383;-75
2023/07/18 12:22:21;;;;;;;;;;;30.80;68.20;;;;;;7604170;19;19923;-75
2023/07/18 12:24:54;;;;;;;;;;;30.40;69.40;;;;;;7606589;19;19926;-76
2023/07/18 12:27:26;;;;;;;;;;;30.10;68.20;;;;;;7587675;19;19922;-75
2023/07/18 12:29:58;;;;;;;;;;;29.40;67.70;;;;;;7607526;19;19922;-75
2023/07/18 12:32:31;;;;;;;;;;;29.20;71.60;;;;;;7608173;19;19925;-75
2023/07/18 12:35:04;;;;;;;;;;;28.90;71.80;;;;;;7613377;19;20664;-75
2023/07/18 12:37:36;;;;;;;;;;;28.70;72.40;;;;;;7608199;19;20542;-74
2023/07/18 12:40:08;;;;;;;;;;;28.40;72.60;;;;;;7610870;19;19954;-74
2023/07/18 12:42:40;;;;;;;;;;;28.20;79.30;;;;;;7590033;19;19937;-74
2023/07/18 12:45:13;;;;;;;;;;;28.10;77.90;;;;;;7577364;19;20599;-74
2023/07/18 12:47:45;;;;;;;;;;;27.90;77.00;;;;;;7553875;19;19919;-73
2023/07/18 12:50:18;;;;;;;;;;;27.90;78.90;;;;;;7527342;19;20734;-74
2023/07/18 12:52:50;;;;;;;;;;;27.80;76.80;;;;;;7579287;19;19923;-76
2023/07/18 12:55:23;;;;;;;;;;;27.70;77.60;;;;;;7599010;19;19974;-74
2023/07/18 12:57:55;;;;;;;;;;;27.70;79.80;;;;;;7607187;19;19923;-75
2023/07/18 13:00:27;;;;;;;;;;;27.60;82.00;;;;;;7593988;19;19923;-75
2023/07/18 13:02:59;;;;;;;;;;;27.20;80.60;;;;;;7549691;19;19918;-75
2023/07/18 13:05:32;;;;;;;;;;;26.80;87.70;;;;;;7550224;19;19915;-77
2023/07/18 13:08:04;;;;;;;;;;;26.60;85.60;;;;;;7577228;19;19978;-77
2023/07/18 13:10:37;;;;;;;;;;;26.30;85.00;;;;;;7586246;19;19964;-75
2023/07/18 13:13:09;;;;;;;;;;;26.10;85.40;;;;;;7586747;19;20356;-75
2023/07/18 13:15:41;;;;;;;;;;;26.10;86.40;;;;;;7572754;19;19923;-74
2023/07/18 13:18:13;;;;;;;;;;;26.00;89.10;;;;;;7594163;19;20276;-75
2023/07/18 13:20:46;;;;;;;;;;;25.90;90.50;;;;;;7573751;19;20293;-76
2023/07/18 13:23:18;;;;;;;;;;;25.80;91.90;;;;;;7572885;19;20391;-75
2023/07/18 13:25:50;;;;;;;;;;;25.50;91.10;;;;;;7584281;19;19931;-75
2023/07/18 13:28:22;;;;;;;;;;;25.50;91.60;;;;;;7610217;19;19929;-75
2023/07/18 13:30:55;;;;;;;;;;;25.50;93.00;;;;;;7612800;19;19925;-77
2023/07/18 13:33:27;;;;;;;;;;;25.50;95.40;;;;;;7610864;19;19946;-77
2023/07/18 13:35:59;;;;;;;;;;;25.40;97.20;;;;;;7608526;19;19914;-77
2023/07/18 13:38:32;;;;;;;;;;;25.40;98.20;;;;;;7603815;19;19919;-77
2023/07/18 13:41:07;;;;;;;;;;;25.40;97.10;;;;;;7607219;19;19919;-78
2023/07/18 13:43:44;;;;;;;;;;;25.20;97.90;;;;;;7617714;19;19939;-77
2023/07/18 13:46:16;;;;;;;;;;;25.20;96.80;;;;;;7628340;19;19945;-75
2023/07/18 13:48:54;;;;;;;;;;;25.40;97.20;;;;;;7611439;19;19922;-75
2023/07/18 13:51:29;;;;;;;;;;;25.60;95.60;;;;;;7571146;19;19918;-75
2023/07/18 13:54:02;;;;;;;;;;;25.60;94.40;;;;;;7606989;19;19962;-76
2023/07/18 13:56:40;;;;;;;;;;;25.60;94.40;;;;;;7611496;19;20858;-78
2023/07/18 13:59:12;;;;;;;;;;;25.50;93.50;;;;;;7607771;19;19935;-76
2023/07/18 14:01:45;;;;;;;;;;;25.60;93.20;;;;;;7562028;19;19993;-78
2023/07/18 14:04:18;;;;;;;;;;;25.50;93.10;;;;;;7582331;19;19919;-76
2023/07/18 14:06:50;;;;;;;;;;;25.60;93.20;;;;;;7600910;19;19919;-79
2023/07/18 14:09:23;;;;;;;;;;;25.50;92.80;;;;;;7579916;19;19919;-77
2023/07/18 14:11:56;;;;;;;;;;;25.70;93.30;;;;;;7587264;19;19925;-78
2023/07/18 14:14:28;;;;;;;;;;;25.60;92.50;;;;;;7574170;19;19919;-76
2023/07/18 14:17:01;;;;;;;;;;;25.70;92.60;;;;;;7577879;19;19922;-79
2023/07/18 14:19:34;;;;;;;;;;;25.80;92.20;;;;;;7587896;19;19911;-80
2023/07/18 14:22:07;;;;;;;;;;;26.00;91.80;;;;;;7583085;19;19923;-78
2023/07/18 14:24:39;;;;;;;;;;;26.20;92.30;;;;;;7598064;19;19952;-78
2023/07/18 14:27:12;;;;;;;;;;;26.20;90.50;;;;;;7609509;19;19923;-79
2023/07/18 14:29:44;;;;;;;;;;;26.30;90.60;;;;;;7613247;19;19933;-78
2023/07/18 14:32:17;;;;;;;;;;;26.20;89.60;;;;;;7628637;19;19929;-77
2023/07/18 14:34:49;;;;;;;;;;;26.10;89.00;;;;;;7633457;19;19915;-77
2023/07/18 14:37:21;;;;;;;;;;;26.00;90.30;;;;;;7633161;19;20514;-78
2023/07/18 14:40:04;;;;;;;;;;;25.80;88.70;;;;;;7624769;19;19925;-74
2023/07/18 14:42:39;;;;;;;;;;;25.80;90.10;;;;;;7609674;19;19998;-78
2023/07/18 14:45:12;;;;;;;;;;;26.20;88.70;;;;;;7586625;19;19919;-78
2023/07/18 14:47:44;;;;;;;;;;;26.70;87.80;;;;;;7600152;19;21300;-78
2023/07/18 14:50:17;;;;;;;;;;;27.30;86.70;;;;;;7605936;19;19933;-77
2023/07/18 14:52:49;;;;;;;;;;;27.50;84.80;;;;;;7593434;19;20464;-77
2023/07/18 14:55:21;;;;;;;;;;;27.70;82.80;;;;;;7586603;19;19922;-78
2023/07/18 14:57:53;;;;;;;;;;;27.70;83.20;;;;;;7588199;19;19933;-78
2023/07/18 15:00:25;;;;;;;;;;;27.60;83.30;;;;;;7584917;19;19929;-79
2023/07/18 15:02:58;;;;;;;;;;;27.70;81.60;;;;;;7603280;19;19919;-77